Time;durP1;ratioP1;P1;durP2;ratioP2;P2;SDS_P1;SDS_P2;PMS_P1;PMS_P2;Temp;Humidity;BMP_temperature;BMP_pressure;BME280_temperature;BME280_humidity;BME280_pressure;Samples;Min_cycle;Max_cycle;Signal;HPM_P1;HPM_P2
2021/07/17 00:00:23;;;;;;;16.67;8.90;;;18.40;99.90;;;17.09;91.95;102094.69;3478309;40;102150;-39
2021/07/17 00:02:51;;;;;;;16.58;8.50;;;18.40;99.90;;;17.07;92.43;102099.56;3478757;40;103090;-39
2021/07/17 00:05:19;;;;;;;11.60;7.40;;;18.40;99.90;;;17.06;92.93;102104.25;3478560;39;102126;-39
2021/07/17 00:07:47;;;;;;;;;;;18.30;99.90;;;17.05;92.88;102105.34;3479576;40;102345;-39
2021/07/17 00:10:38;;;;;;;16.98;8.27;;;18.30;99.90;;;17.05;92.81;102102.56;3480396;39;102183;-38
2021/07/17 00:13:07;;;;;;;16.95;8.10;;;18.30;99.90;;;17.04;92.68;102100.91;3479447;40;103696;-39
2021/07/17 00:15:38;;;;;;;18.02;9.15;;;18.30;99.90;;;17.01;92.72;102095.84;3479276;40;102900;-39
2021/07/17 00:18:06;;;;;;;17.77;8.70;;;18.30;99.90;;;17.03;93.23;102101.97;3479702;40;102274;-39
2021/07/17 00:20:34;;;;;;;15.70;7.97;;;18.30;99.90;;;17.02;92.90;102094.75;3479253;40;103226;-39
2021/07/17 00:23:04;;;;;;;16.52;8.20;;;18.30;99.90;;;17.01;92.50;102098.59;3478754;40;104256;-39
2021/07/17 00:25:31;;;;;;;12.93;7.95;;;18.30;99.90;;;17.04;92.75;102102.78;3479532;40;102311;-38
2021/07/17 00:27:59;;;;;;;14.48;8.48;;;18.30;99.90;;;17.03;92.61;102090.94;3479868;39;102688;-39
2021/07/17 00:30:26;;;;;;;;;;;18.30;99.90;;;17.02;92.59;102088.38;3480584;39;102441;-39
2021/07/17 00:32:54;;;;;;;15.85;8.93;;;18.30;99.90;;;17.02;92.86;102099.41;3480216;39;103163;-39
2021/07/17 00:35:21;;;;;;;20.48;9.05;;;18.30;99.90;;;17.03;91.97;102090.94;3479506;40;102217;-39
2021/07/17 00:37:49;;;;;;;17.10;8.15;;;18.30;99.90;;;16.99;91.57;102095.22;3479185;40;103150;-39
2021/07/17 00:40:22;;;;;;;18.33;8.45;;;18.30;99.90;;;16.99;91.67;102092.47;3479066;40;103514;-39
2021/07/17 00:42:51;;;;;;;16.27;7.90;;;18.30;99.90;;;16.99;92.34;102086.09;3479249;40;104311;-39
2021/07/17 00:45:20;;;;;;;17.35;8.45;;;18.20;99.90;;;16.96;90.72;102085.44;3479212;40;102446;-39
2021/07/17 00:47:49;;;;;;;21.58;8.82;;;18.20;99.90;;;16.93;90.97;102087.78;3479116;40;104194;-39
2021/07/17 00:50:20;;;;;;;20.38;9.05;;;18.20;99.90;;;16.99;91.54;102081.44;3479982;40;102506;-39
2021/07/17 00:52:48;;;;;;;17.90;9.13;;;18.30;99.90;;;16.96;91.78;102081.81;3479173;40;103108;-39
2021/07/17 00:55:15;;;;;;;;;;;18.20;99.90;;;16.95;92.44;102088.41;3479918;40;102150;-39
2021/07/17 00:57:47;;;;;;;15.98;8.05;;;18.20;99.90;;;16.96;92.97;102087.34;3479318;40;103090;-39
2021/07/17 01:00:17;;;;;;;17.30;8.18;;;18.20;99.90;;;16.99;93.49;102086.94;3479695;40;102511;-39
2021/07/17 01:02:48;;;;;;;18.30;9.10;;;18.20;99.90;;;16.97;91.76;102080.75;3478753;40;102503;-39
2021/07/17 01:05:18;;;;;;;19.20;8.50;;;18.20;99.90;;;16.93;91.19;102083.13;3478875;40;103442;-39
2021/07/17 01:07:46;;;;;;;17.40;7.80;;;18.20;99.90;;;16.97;91.65;102080.75;3479217;40;104222;-39
2021/07/17 01:10:19;;;;;;;17.23;8.20;;;18.20;99.90;;;16.93;91.70;102085.03;3479525;40;102405;-39
2021/07/17 01:12:48;;;;;;;15.68;8.57;;;18.20;99.90;;;16.92;92.24;102083.34;3479472;40;103136;-39
2021/07/17 01:15:17;;;;;;;17.92;8.75;;;18.20;99.90;;;16.92;91.73;102084.22;3478718;40;102459;-41
2021/07/17 01:17:46;;;;;;;17.48;9.13;;;18.20;99.90;;;16.88;90.14;102088.47;3479397;39;102273;-39
2021/07/17 01:20:18;;;;;;;19.92;8.80;;;18.20;99.90;;;16.89;90.31;102089.31;3479690;40;102327;-39
2021/07/17 01:22:46;;;;;;;20.38;8.57;;;18.10;99.90;;;16.88;89.76;102095.91;3479386;40;103176;-39
2021/07/17 01:25:25;;;;;;;;;;;18.10;99.90;;;16.91;89.25;102098.19;3479911;39;102505;-39
2021/07/17 01:27:55;;;;;;;20.23;9.13;;;18.20;99.90;;;16.95;89.02;102096.69;3480105;39;102342;-39
2021/07/17 01:30:35;;;;;;;13.95;7.63;;;18.20;99.90;;;16.89;89.19;102100.34;3479256;40;102566;-39
2021/07/17 01:33:06;;;;;;;16.95;8.68;;;18.10;99.90;;;16.89;88.58;102097.56;3479344;40;102473;-39
2021/07/17 01:35:34;;;;;;;15.70;9.05;;;18.10;99.90;;;16.87;88.49;102103.34;3628237;22;103404;-41
2021/07/17 01:38:02;;;;;;;16.42;8.60;;;18.10;99.90;;;16.87;88.83;102099.72;3503831;40;102215;-41
2021/07/17 01:40:30;;;;;;;15.95;8.73;;;18.10;99.90;;;16.83;89.65;102102.94;3508755;40;102707;-41
2021/07/17 01:42:58;;;;;;;19.58;8.68;;;18.10;99.90;;;16.78;89.95;102105.50;3508201;40;102378;-44
2021/07/17 01:45:29;;;;;;;;;;;18.10;99.90;;;16.73;88.22;102105.34;3515961;40;102996;-41
2021/07/17 01:47:57;;;;;;;15.57;8.48;;;18.00;99.90;;;16.75;88.87;102103.22;3517720;40;103022;-41
2021/07/17 01:50:29;;;;;;;;;;;18.00;99.90;;;16.74;90.01;102092.41;3518444;40;102350;-41
2021/07/17 01:52:58;;;;;;;16.17;8.55;;;18.00;99.90;;;16.74;90.19;102093.25;3517908;40;103326;-41
2021/07/17 01:55:26;;;;;;;18.48;8.25;;;18.00;99.90;;;16.68;90.19;102086.72;3517614;40;102554;-41
2021/07/17 01:57:53;;;;;;;21.02;9.60;;;18.00;99.90;;;16.70;90.98;102094.75;3517604;40;104010;-41
2021/07/17 02:00:22;;;;;;;16.88;8.18;;;18.00;99.90;;;16.70;91.10;102085.66;3517569;40;103320;-41
2021/07/17 02:02:50;;;;;;;18.30;8.70;;;18.00;99.90;;;16.71;90.82;102085.44;3517596;40;102347;-41
2021/07/17 02:05:21;;;;;;;16.60;8.65;;;18.00;99.90;;;16.71;90.77;102082.69;3517828;40;102431;-41
2021/07/17 02:07:48;;;;;;;15.07;7.97;;;18.00;99.90;;;16.67;91.08;102089.69;3517907;40;103282;-40
2021/07/17 02:10:32;;;;;;;17.25;9.07;;;17.90;99.90;;;16.66;91.20;102085.25;3517658;40;102482;-41
2021/07/17 02:13:16;;;;;;;14.73;8.60;;;17.90;99.90;;;16.62;90.74;102082.09;3517673;40;103098;-41
2021/07/17 02:15:52;;;;;;;18.67;9.02;;;17.90;99.90;;;16.66;90.40;102085.25;3517901;40;102178;-41
2021/07/17 02:18:33;;;;;;;15.13;8.68;;;17.90;99.90;;;16.64;90.84;102090.13;3518237;39;102223;-41
2021/07/17 02:21:06;;;;;;;22.67;9.63;;;17.90;99.90;;;16.70;91.11;102086.47;3517584;40;102291;-41
2021/07/17 02:23:36;;;;;;;15.50;7.75;;;17.90;99.90;;;16.66;91.12;102090.75;3517698;40;103103;-41
2021/07/17 02:26:06;;;;;;;20.67;8.98;;;17.90;99.90;;;16.67;91.83;102081.41;3517850;40;103217;-41
2021/07/17 02:28:35;;;;;;;16.90;9.25;;;18.00;99.90;;;16.67;90.29;102087.78;3517299;40;102180;-41
2021/07/17 02:31:07;;;;;;;15.55;7.97;;;17.90;99.90;;;16.63;90.88;102094.81;3516730;40;104192;-41
2021/07/17 02:33:36;;;;;;;21.13;8.80;;;17.90;99.90;;;16.62;91.27;102090.38;3517223;40;102345;-41
2021/07/17 02:36:04;;;;;;;17.92;8.82;;;17.90;99.90;;;16.61;91.94;102091.44;3517175;40;102398;-41
2021/07/17 02:38:31;;;;;;;17.13;8.82;;;17.90;99.90;;;16.56;92.16;102082.13;3517566;40;102305;-41
2021/07/17 02:40:59;;;;;;;17.55;8.80;;;17.90;99.90;;;16.57;92.44;102092.91;3517412;40;102374;-41
2021/07/17 02:43:26;;;;;;;18.75;8.30;;;17.80;99.90;;;16.56;92.58;102095.91;3517361;40;102228;-45
2021/07/17 02:45:53;;;;;;;18.48;8.77;;;17.80;99.90;;;16.56;92.75;102084.91;3517260;40;102430;-41
2021/07/17 02:48:21;;;;;;;12.32;7.40;;;17.80;99.90;;;16.52;93.38;102079.84;3517553;40;103306;-41
2021/07/17 02:50:48;;;;;;;13.77;8.57;;;17.80;99.90;;;16.57;93.56;102086.59;3517314;40;102424;-43
2021/07/17 02:53:15;;;;;;;14.27;8.35;;;17.80;99.90;;;16.54;93.79;102077.69;3517165;40;102335;-41
2021/07/17 02:55:43;;;;;;;14.02;7.72;;;17.80;99.90;;;16.54;94.17;102076.84;3517103;40;102207;-42
2021/07/17 02:58:10;;;;;;;14.70;7.93;;;17.80;99.90;;;16.56;94.33;102082.13;3516967;40;102322;-41
2021/07/17 03:00:38;;;;;;;20.23;8.98;;;17.80;99.90;;;16.54;93.77;102082.34;3517466;40;102415;-41
2021/07/17 03:03:12;;;;;;;15.00;8.02;;;17.80;99.90;;;16.54;93.77;102083.22;3517340;40;102191;-44
2021/07/17 03:05:40;;;;;;;16.40;8.65;;;17.80;99.90;;;16.47;93.49;102079.66;3517193;40;102260;-41
2021/07/17 03:08:08;;;;;;;17.42;8.63;;;17.80;99.90;;;16.48;93.38;102089.63;3517291;40;102145;-42
2021/07/17 03:10:36;;;;;;;14.43;8.88;;;17.80;99.90;;;16.49;93.56;102095.94;3517026;40;102426;-41
2021/07/17 03:13:03;;;;;;;11.98;8.05;;;17.80;99.90;;;16.46;93.83;102086.25;3517994;39;102326;-41
2021/07/17 03:15:30;;;;;;;15.77;8.55;;;17.70;99.90;;;16.45;94.21;102090.06;3517110;40;103202;-41
2021/07/17 03:17:58;;;;;;;16.45;9.20;;;17.70;99.90;;;16.45;94.15;102094.72;3517289;40;104881;-42
2021/07/17 03:20:25;;;;;;;19.15;9.77;;;17.70;99.90;;;16.41;93.94;102088.78;3516797;40;102286;-41
2021/07/17 03:22:53;;;;;;;14.15;8.88;;;17.70;99.90;;;16.39;94.33;102089.03;3516932;40;103297;-41
2021/07/17 03:25:20;;;;;;;18.25;8.95;;;17.70;99.90;;;16.42;94.65;102084.13;3516477;40;103371;-42
2021/07/17 03:27:48;;;;;;;17.38;8.85;;;17.70;99.90;;;16.44;94.54;102073.75;3517130;40;102806;-41
2021/07/17 03:30:16;;;;;;;20.48;9.23;;;17.70;99.90;;;16.44;94.48;102082.00;3517471;39;102494;-41
2021/07/17 03:32:43;;;;;;;13.55;7.95;;;17.70;99.90;;;16.41;94.16;102088.78;3516818;40;102323;-41
2021/07/17 03:35:11;;;;;;;19.13;9.30;;;17.70;99.90;;;16.42;94.04;102084.13;3516990;40;102389;-41
2021/07/17 03:37:39;;;;;;;17.65;8.75;;;17.70;99.90;;;16.44;94.02;102087.50;3516554;40;103202;-42
2021/07/17 03:40:07;;;;;;;18.88;8.70;;;17.70;99.90;;;16.43;94.11;102086.66;3517308;40;102332;-41
2021/07/17 03:42:35;;;;;;;16.42;9.60;;;17.70;99.90;;;16.44;94.05;102082.84;3518538;39;102121;-41
2021/07/17 03:45:03;;;;;;;18.40;9.20;;;17.70;99.90;;;16.43;94.24;102083.91;3519355;39;102154;-41
2021/07/17 03:47:30;;;;;;;14.35;8.82;;;17.70;99.90;;;16.43;94.11;102078.38;3518090;40;102328;-41
2021/07/17 03:49:58;;;;;;;17.55;8.98;;;17.70;99.90;;;16.43;94.48;102085.81;3518327;40;102521;-41
2021/07/17 03:52:25;;;;;;;17.00;8.63;;;17.70;99.90;;;16.47;94.64;102089.81;3518126;40;104184;-42
2021/07/17 03:54:53;;;;;;;19.67;8.32;;;17.70;99.90;;;16.45;94.38;102091.94;3518311;40;102422;-41
2021/07/17 03:57:20;;;;;;;19.58;9.77;;;17.70;99.90;;;16.47;93.31;102087.94;3518418;40;102692;-41
2021/07/17 03:59:48;;;;;;;18.58;8.65;;;17.70;99.90;;;16.43;93.50;102089.41;3518404;40;102419;-42
2021/07/17 04:02:15;;;;;;;17.38;8.25;;;17.70;99.90;;;16.41;92.90;102083.28;3517825;40;102258;-41
2021/07/17 04:04:43;;;;;;;18.00;9.23;;;17.70;99.90;;;16.40;92.85;102089.84;3518044;40;102539;-40
2021/07/17 04:07:11;;;;;;;15.90;9.00;;;17.70;99.90;;;16.36;92.94;102085.84;3518367;40;102690;-41
2021/07/17 04:09:38;;;;;;;14.48;7.75;;;17.70;99.90;;;16.38;93.25;102090.09;3517997;40;102528;-43
2021/07/17 04:12:06;;;;;;;16.40;9.13;;;17.70;99.90;;;16.40;92.80;102087.09;3518134;40;102124;-42
2021/07/17 04:14:34;;;;;;;18.30;9.30;;;17.70;99.90;;;16.39;92.85;102088.16;3518001;40;102228;-41
2021/07/17 04:17:01;;;;;;;15.10;8.10;;;17.60;99.90;;;16.39;93.03;102091.78;3518193;40;102699;-41
2021/07/17 04:19:29;;;;;;;;;;;17.70;99.90;;;16.44;93.28;102093.03;3518811;40;102465;-41
2021/07/17 04:21:56;;;;;;;17.27;8.40;;;17.70;99.90;;;16.45;93.49;102091.94;3518329;40;102200;-41
2021/07/17 04:24:24;;;;;;;;;;;17.70;99.90;;;16.50;92.75;102109.50;3518575;40;102263;-41
2021/07/17 04:26:51;;;;;;;17.95;8.73;;;17.70;99.90;;;16.47;91.78;102107.22;3518118;40;102838;-41
2021/07/17 04:29:18;;;;;;;20.38;8.70;;;17.70;99.90;;;16.48;91.68;102108.91;3518041;40;102108;-41
2021/07/17 04:31:46;;;;;;;16.00;8.18;;;17.70;99.90;;;16.49;91.98;102105.06;3518363;40;102500;-41
2021/07/17 04:34:13;;;;;;;16.83;8.73;;;17.80;99.90;;;16.52;92.41;102096.38;3517831;40;102705;-44
2021/07/17 04:36:40;;;;;;;16.30;8.05;;;17.80;99.90;;;16.52;92.78;102099.13;3518052;40;102286;-41
2021/07/17 04:39:08;;;;;;;16.23;7.68;;;17.80;99.90;;;16.58;93.04;102107.56;3517687;40;102277;-44
2021/07/17 04:41:35;;;;;;;18.17;7.72;;;17.80;99.90;;;16.62;92.79;102103.28;3518311;40;103116;-41
2021/07/17 04:44:03;;;;;;;15.35;8.13;;;17.80;99.90;;;16.61;92.68;102104.34;3517680;40;103122;-41
2021/07/17 04:46:30;;;;;;;15.25;8.05;;;17.80;99.90;;;16.58;90.65;102096.53;3517780;40;104091;-41
2021/07/17 04:48:58;;;;;;;16.27;8.18;;;17.90;99.90;;;16.58;89.44;102102.91;3518046;40;102765;-41
2021/07/17 04:51:25;;;;;;;20.17;8.93;;;17.80;99.90;;;16.63;89.44;102100.31;3517394;40;103157;-41
2021/07/17 04:53:52;;;;;;;14.85;7.57;;;17.80;99.90;;;16.63;88.87;102105.84;3517381;40;102299;-41
2021/07/17 04:56:20;;;;;;;21.55;8.07;;;17.90;99.90;;;16.71;89.65;102110.25;3517888;39;103111;-41
2021/07/17 04:58:47;;;;;;;16.63;7.35;;;17.90;99.90;;;16.66;88.63;102104.53;3518070;40;102425;-42
2021/07/17 05:01:14;;;;;;;17.90;8.10;;;17.90;99.90;;;16.67;89.47;102100.69;3517685;40;104181;-44
2021/07/17 05:03:42;;;;;;;18.02;8.27;;;17.90;99.90;;;16.68;90.31;102102.38;3517891;40;102329;-41
2021/07/17 05:06:09;;;;;;;18.48;8.15;;;17.90;99.90;;;16.72;88.70;102100.91;3517808;40;103133;-41
2021/07/17 05:08:37;;;;;;;;;;;17.90;99.90;;;16.74;89.12;102098.75;3518039;40;102410;-41
2021/07/17 05:11:04;;;;;;;16.58;8.48;;;18.00;99.90;;;16.82;89.76;102095.72;3518203;40;103118;-41
2021/07/17 05:13:34;;;;;;;16.35;8.07;;;18.00;99.90;;;16.83;89.53;102094.66;3517751;40;102370;-44
2021/07/17 05:16:01;;;;;;;18.10;9.18;;;18.00;99.90;;;16.85;87.50;102091.69;3517520;40;102312;-40
2021/07/17 05:18:29;;;;;;;19.08;8.57;;;18.10;99.90;;;16.87;88.08;102096.97;3517446;40;102374;-41
2021/07/17 05:20:56;;;;;;;15.60;7.75;;;18.10;99.90;;;16.85;87.81;102094.44;3517811;40;103177;-41
2021/07/17 05:23:24;;;;;;;17.80;7.85;;;18.10;99.90;;;16.87;88.28;102095.06;3516187;40;104426;-41
2021/07/17 05:25:51;;;;;;;17.20;7.88;;;18.10;99.90;;;16.90;88.88;102091.00;3517750;40;103112;-45
2021/07/17 05:28:22;;;;;;;20.80;8.43;;;18.10;99.90;;;16.94;88.39;102087.56;3517615;40;102387;-41
2021/07/17 05:30:50;;;;;;;16.85;7.88;;;18.10;99.90;;;16.96;88.52;102088.19;3517741;40;102358;-41
2021/07/17 05:33:19;;;;;;;17.80;7.43;;;18.20;99.90;;;17.00;88.05;102088.63;3517707;40;102700;-41
2021/07/17 05:35:46;;;;;;;15.25;7.57;;;18.20;99.90;;;17.03;88.10;102093.69;3518120;39;102182;-44
2021/07/17 05:38:13;;;;;;;15.02;7.60;;;18.20;99.90;;;17.05;87.14;102087.94;3517826;40;102743;-41
2021/07/17 05:40:41;;;;;;;19.80;7.45;;;18.20;99.90;;;17.07;85.98;102099.56;3517870;40;103352;-41
2021/07/17 05:43:08;;;;;;;16.88;7.90;;;18.30;99.90;;;17.05;86.95;102097.06;3517726;40;102605;-41
2021/07/17 05:45:36;;;;;;;16.05;7.80;;;18.20;99.90;;;17.07;86.59;102096.81;3517446;40;103157;-41
2021/07/17 05:48:05;;;;;;;16.58;7.20;;;18.30;99.90;;;17.07;85.55;102096.81;3518524;39;102114;-41
2021/07/17 05:50:33;;;;;;;15.35;8.13;;;18.30;99.90;;;17.08;85.25;102109.53;3517759;40;103190;-41
2021/07/17 05:53:09;;;;;;;17.83;7.45;;;18.30;99.90;;;17.09;84.62;102109.31;3517440;40;102437;-41
2021/07/17 05:55:38;;;;;;;16.73;7.97;;;18.30;99.90;;;17.09;82.71;102112.09;3517382;40;102295;-41
2021/07/17 05:58:05;;;;;;;14.07;7.10;;;18.30;99.90;;;17.13;83.75;102117.16;3517458;40;102494;-45
2021/07/17 06:00:33;;;;;;;18.08;7.85;;;18.30;99.90;;;17.13;83.05;102119.91;3517450;40;102191;-41
2021/07/17 06:03:00;;;;;;;15.25;7.65;;;18.30;99.90;;;17.11;83.19;102118.22;3518204;40;102028;-41
2021/07/17 06:05:28;;;;;;;20.58;8.30;;;18.30;99.90;;;17.08;83.63;102121.44;3516853;40;103545;-41
2021/07/17 06:07:55;;;;;;;16.48;8.50;;;18.30;99.90;;;17.09;84.28;102117.59;3517187;40;102462;-43
2021/07/17 06:10:23;;;;;;;14.27;7.72;;;18.20;99.90;;;17.13;84.20;102122.66;3517430;40;102283;-41
2021/07/17 06:12:50;;;;;;;17.95;8.02;;;18.30;99.90;;;17.16;83.15;102125.81;3517442;40;102375;-41
2021/07/17 06:15:17;;;;;;;16.77;8.23;;;18.30;99.90;;;17.22;82.93;102124.91;3517428;40;103075;-43
2021/07/17 06:17:45;;;;;;;12.45;7.82;;;18.30;99.90;;;17.24;82.06;102124.69;3517935;40;102388;-40
2021/07/17 06:20:13;;;;;;;17.77;8.90;;;18.40;99.90;;;17.30;83.37;102134.81;3518020;40;102745;-41
2021/07/17 06:22:40;;;;;;;22.27;8.57;;;18.40;99.90;;;17.33;84.13;102128.00;3517653;40;102411;-41
2021/07/17 06:25:08;;;;;;;19.77;8.73;;;18.40;99.90;;;17.30;82.65;102126.53;3517033;40;102280;-41
2021/07/17 06:27:36;;;;;;;14.98;8.10;;;18.50;99.90;;;17.40;83.51;102124.09;3517375;40;102454;-41
2021/07/17 06:30:05;;;;;;;24.67;9.57;;;18.50;99.90;;;17.50;83.82;102120.81;3517267;40;103380;-41
2021/07/17 06:32:32;;;;;;;16.73;8.25;;;18.60;99.90;;;17.59;83.66;102132.41;3517025;40;102433;-41
2021/07/17 06:35:00;;;;;;;16.58;8.63;;;18.60;99.90;;;17.61;81.63;102141.31;3517312;40;103064;-41
2021/07/17 06:37:27;;;;;;;16.75;8.65;;;18.70;99.90;;;17.58;80.50;102133.50;3516977;40;102284;-41
2021/07/17 06:39:54;;;;;;;17.05;8.60;;;18.70;99.90;;;17.59;80.34;102142.59;3517112;40;103160;-41
2021/07/17 06:42:22;;;;;;;17.83;8.57;;;18.70;99.90;;;17.61;81.92;102144.06;3517412;40;102105;-41
2021/07/17 06:44:49;;;;;;;17.13;8.25;;;18.70;99.90;;;17.66;79.66;102146.16;3516905;40;102266;-42
2021/07/17 06:47:21;;;;;;;14.23;8.00;;;18.80;99.90;;;17.68;80.40;102144.00;3517159;40;102350;-43
2021/07/17 06:49:48;;;;;;;17.08;8.35;;;18.80;99.90;;;17.77;81.29;102139.84;3517430;40;103254;-41
2021/07/17 06:52:16;;;;;;;20.05;9.13;;;18.90;99.90;;;17.87;83.36;102144.84;3517204;40;102620;-41
2021/07/17 06:54:43;;;;;;;13.80;7.85;;;18.90;99.90;;;17.90;81.60;102149.06;3516740;40;102194;-40
2021/07/17 06:57:10;;;;;;;18.00;10.05;;;18.90;99.90;;;17.91;80.07;102148.00;3517624;40;102123;-40
2021/07/17 06:59:38;;;;;;;32.90;19.02;;;19.00;99.90;;;17.91;79.89;102148.00;3517144;40;105114;-44
2021/07/17 07:02:06;;;;;;;29.60;18.65;;;19.00;99.90;;;17.89;80.34;102159.28;3517497;40;102325;-41
2021/07/17 07:04:34;;;;;;;31.00;17.63;;;19.00;99.90;;;17.93;81.14;102149.44;3516565;40;102276;-41
2021/07/17 07:07:02;;;;;;;24.48;14.68;;;19.00;99.90;;;18.01;81.92;102155.72;3517413;40;102482;-41
2021/07/17 07:09:30;;;;;;;18.75;12.65;;;19.10;99.90;;;18.04;81.35;102166.38;3516818;40;102271;-41
2021/07/17 07:11:57;;;;;;;28.40;13.73;;;19.10;99.90;;;17.99;80.16;102158.75;3517160;40;102456;-41
2021/07/17 07:14:25;;;;;;;23.50;14.00;;;19.10;99.90;;;18.06;81.96;102164.22;3516721;40;103396;-41
2021/07/17 07:16:52;;;;;;;22.65;13.82;;;19.10;99.90;;;18.16;82.02;102170.03;3516996;40;102549;-41
2021/07/17 07:19:20;;;;;;;31.00;17.27;;;19.20;99.90;;;18.08;78.68;102168.41;3518058;40;102239;-41
2021/07/17 07:21:49;;;;;;;25.48;15.85;;;19.20;99.90;;;18.13;79.07;102178.78;3518084;40;102401;-41
2021/07/17 07:24:16;;;;;;;25.77;15.73;;;19.30;99.90;;;18.02;78.33;102185.06;3518236;40;102180;-41
2021/07/17 07:26:44;;;;;;;30.15;16.42;;;19.20;99.90;;;17.97;78.96;102183.81;3518075;40;102137;-41
2021/07/17 07:29:12;;;;;;;23.58;14.15;;;19.10;99.90;;;18.00;80.57;102179.75;3518264;40;102297;-44
2021/07/17 07:31:39;;;;;;;;;;;19.10;99.90;;;18.03;79.73;102176.56;3518624;40;102494;-41
2021/07/17 07:36:41;;;;;;;24.10;14.05;;;19.20;99.90;;;17.92;78.61;102185.59;3529539;39;102324;-39
2021/07/17 07:39:09;;;;;;;24.10;13.18;;;19.10;99.90;;;17.87;79.15;102189.03;3530370;39;102215;-39
2021/07/17 07:41:36;;;;;;;23.10;13.65;;;19.00;99.90;;;17.91;81.17;102189.41;3530742;39;102221;-39
2021/07/17 07:44:04;;;;;;;27.10;13.80;;;19.00;99.90;;;17.87;79.73;102196.44;3530222;39;103111;-39
2021/07/17 07:46:34;;;;;;;;;;;19.00;99.90;;;17.99;79.57;102189.09;3530580;39;102476;-39
2021/07/17 07:49:07;;;;;;;24.92;13.00;;;19.10;99.90;;;18.10;79.59;102176.50;3530622;39;103183;-39
2021/07/17 07:51:35;;;;;;;25.70;13.52;;;19.20;99.90;;;18.28;80.33;102180.28;3530674;39;102323;-39
2021/07/17 07:54:03;;;;;;;25.20;13.60;;;19.30;99.90;;;18.45;80.75;102173.06;3530819;39;102273;-39
2021/07/17 07:56:30;;;;;;;23.80;15.52;;;19.40;99.90;;;18.73;79.90;102179.09;3530197;39;102313;-39
2021/07/17 07:58:57;;;;;;;26.17;15.75;;;19.60;99.90;;;18.94;80.19;102177.69;3530434;39;102543;-39
2021/07/17 08:01:25;;;;;;;22.55;15.27;;;19.80;99.90;;;18.96;76.46;102178.31;3530052;39;102171;-39
2021/07/17 08:03:53;;;;;;;22.20;14.85;;;19.90;99.90;;;19.18;79.91;102180.56;3530940;39;105015;-38
2021/07/17 08:06:20;;;;;;;23.85;14.52;;;20.10;99.90;;;19.38;78.83;102180.22;3530364;39;102448;-39
2021/07/17 08:08:48;;;;;;;24.23;14.38;;;20.30;99.90;;;19.47;75.88;102173.22;3530316;39;102222;-39
2021/07/17 08:11:15;;;;;;;24.30;12.10;;;20.40;99.90;;;19.60;77.13;102177.69;3530279;39;102535;-39
2021/07/17 08:13:42;;;;;;;21.85;12.48;;;20.50;99.90;;;19.79;76.38;102183.09;3529988;39;103221;-39
2021/07/17 08:16:10;;;;;;;24.48;12.15;;;20.60;99.90;;;19.77;75.71;102183.34;3530617;39;102456;-40
2021/07/17 08:18:37;;;;;;;19.48;10.90;;;20.70;99.90;;;19.77;73.53;102176.97;3530764;39;103171;-39
2021/07/17 08:21:05;;;;;;;17.02;11.25;;;20.70;99.90;;;19.93;74.83;102190.13;3530574;39;102446;-39
2021/07/17 08:23:33;;;;;;;25.50;13.18;;;20.80;99.90;;;19.98;72.48;102184.69;3530500;39;103629;-38
2021/07/17 08:26:00;;;;;;;21.42;13.20;;;20.80;99.90;;;20.17;74.23;102187.31;3529605;39;102415;-39
2021/07/17 08:28:28;;;;;;;24.15;13.48;;;21.00;99.90;;;20.31;74.76;102173.16;3530043;39;103058;-39
2021/07/17 08:30:56;;;;;;;20.95;9.70;;;21.10;99.90;;;20.23;71.57;102177.16;3530119;39;102200;-39
2021/07/17 08:33:23;;;;;;;12.15;7.70;;;21.20;99.90;;;20.25;70.88;102184.16;3528779;39;102482;-39
2021/07/17 08:35:51;;;;;;;14.38;7.90;;;21.20;99.90;;;20.20;71.30;102186.81;3502598;39;102443;-39
2021/07/17 08:38:18;;;;;;;14.18;7.53;;;21.20;99.90;;;20.15;71.90;102177.53;3488978;40;104090;-39
2021/07/17 08:40:53;;;;;;;11.43;6.28;;;21.20;99.90;;;20.02;72.47;102189.72;3489336;39;102186;-39
2021/07/17 08:43:22;;;;;;;12.57;6.43;;;21.10;99.90;;;19.95;72.60;102190.72;3488779;40;102326;-38
2021/07/17 08:45:51;;;;;;;11.15;7.40;;;21.10;99.90;;;19.95;72.92;102187.94;3488868;39;102451;-39
2021/07/17 08:48:21;;;;;;;12.55;7.45;;;21.00;99.90;;;20.17;71.53;102192.00;3489606;39;103365;-39
2021/07/17 08:50:49;;;;;;;14.68;8.27;;;21.10;99.90;;;20.34;71.51;102189.28;3489809;39;102293;-39
2021/07/17 08:53:18;;;;;;;14.65;8.93;;;21.20;99.90;;;20.71;73.01;102188.94;3489753;39;102341;-38
2021/07/17 08:55:45;;;;;;;14.02;7.65;;;21.40;99.90;;;20.82;70.27;102199.13;3489953;39;102555;-38
2021/07/17 08:58:13;;;;;;;;;;;21.60;99.90;;;21.07;68.75;102189.59;3489523;39;102287;-39
2021/07/17 09:00:44;;;;;;;11.68;5.40;;;21.80;99.90;;;20.87;67.10;102197.53;3488776;40;102815;-39
2021/07/17 09:03:18;;;;;;;16.65;5.95;;;21.90;99.90;;;20.94;67.76;102201.00;3490025;39;104966;-39
2021/07/17 09:05:49;;;;;;;14.32;5.40;;;21.90;99.90;;;21.04;67.04;102186.47;3488583;40;102297;-38
2021/07/17 09:08:19;;;;;;;9.80;5.07;;;22.00;99.90;;;21.21;68.91;102194.81;3489601;39;103223;-39
2021/07/17 09:10:49;;;;;;;10.23;5.32;;;22.10;99.90;;;21.21;66.85;102183.72;3489302;39;102361;-39
2021/07/17 09:13:26;;;;;;;10.68;5.18;;;22.20;99.90;;;21.61;66.70;102177.13;3489331;39;104027;-38
2021/07/17 09:15:58;;;;;;;12.75;5.63;;;22.40;99.90;;;21.95;65.71;102176.25;3489520;39;102321;-39
2021/07/17 09:18:35;;;;;;;11.98;5.95;;;22.70;99.90;;;22.04;67.66;102180.25;3521317;39;104873;-38
2021/07/17 09:21:24;;;;;;;15.75;7.72;;;22.70;99.90;;;21.89;65.94;102180.06;3489005;39;102408;-39
2021/07/17 09:24:05;;;;;;;13.82;7.50;;;22.80;99.90;;;21.94;66.54;102169.84;3488568;39;102478;-39
2021/07/17 09:26:37;;;;;;;13.18;7.80;;;22.80;99.90;;;21.79;65.18;102169.66;3488448;40;103495;-38
2021/07/17 09:29:12;;;;;;;13.70;7.13;;;22.80;99.90;;;21.83;67.31;102181.94;3489478;39;102304;-39
2021/07/17 09:31:49;;;;;;;11.45;6.05;;;22.70;99.90;;;22.12;66.43;102167.88;3489927;39;102170;-38
2021/07/17 09:34:22;;;;;;;11.27;5.65;;;22.90;99.90;;;22.34;67.66;102162.28;3488467;40;104000;-39
2021/07/17 09:37:22;;;;;;;14.70;5.60;;;23.10;99.90;;;22.35;61.55;102163.97;3489736;39;102360;-38
2021/07/17 09:39:50;;;;;;;12.45;5.68;;;23.20;99.90;;;22.35;61.66;102158.41;3488602;39;103412;-39
2021/07/17 09:42:21;;;;;;;11.05;5.78;;;23.20;99.90;;;22.43;63.49;102159.88;3489895;39;102692;-39
2021/07/17 09:44:51;;;;;;;10.07;6.13;;;23.30;99.90;;;22.57;63.13;102170.66;3489434;39;102380;-39
2021/07/17 09:47:25;;;;;;;11.80;5.60;;;23.40;99.90;;;22.58;61.65;102162.03;3489415;39;102266;-39
2021/07/17 09:50:13;;;;;;;9.30;5.30;;;23.40;99.90;;;22.65;64.93;102167.38;3489141;39;102204;-38
2021/07/17 09:52:43;;;;;;;14.65;6.28;;;23.50;99.90;;;22.91;61.30;102168.47;3489556;39;102364;-38
2021/07/17 09:55:14;;;;;;;9.85;5.30;;;;;;;23.19;61.38;102154.53;3488890;39;102451;-39
2021/07/17 09:57:43;;;;;;;12.32;6.38;;;;;;;23.19;61.56;102160.91;3488459;40;102294;-38
2021/07/17 10:00:23;;;;;;;15.18;6.32;;;;;;;23.19;61.32;102152.56;3488861;39;102204;-38
2021/07/17 10:02:53;;;;;;;14.05;7.32;;;23.70;99.90;;;22.92;62.03;102160.97;3489584;39;102453;-38
2021/07/17 10:05:38;;;;;;;14.90;7.80;;;24.00;99.90;;;22.91;60.11;102164.84;3488266;39;103096;-39
2021/07/17 10:08:14;;;;;;;15.45;7.35;;;23.90;99.90;;;23.09;62.85;102155.28;3489126;39;102614;-38
2021/07/17 10:10:44;;;;;;;14.55;6.20;;;;;;;23.13;61.02;102151.69;3489593;39;103086;-38
2021/07/17 10:13:12;;;;;;;13.35;6.45;;;23.90;99.90;;;22.93;60.66;102159.88;3489086;39;103695;-39